Time;durP1;ratioP1;P1;durP2;ratioP2;P2;SDS_P1;SDS_P2;PMS_P1;PMS_P2;Temp;Humidity;BMP_temperature;BMP_pressure;BME280_temperature;BME280_humidity;BME280_pressure;Samples;Min_cycle;Max_cycle;Signal;HPM_P1;HPM_P2
2021/04/12 00:01:49;;;;;;;0.88;0.50;;;6.30;99.90;;;;;;5094327;28;20429;-52
2021/04/12 00:04:23;;;;;;;0.90;0.55;;;6.30;99.90;;;;;;5094495;28;20425;-53
2021/04/12 00:06:55;;;;;;;0.80;0.57;;;6.30;99.90;;;;;;5093937;28;20524;-51
2021/04/12 00:09:30;;;;;;;0.70;0.50;;;6.20;99.90;;;;;;5094553;28;20520;-51
2021/04/12 00:12:01;;;;;;;0.80;0.57;;;6.20;99.90;;;;;;5094353;28;20465;-53
2021/04/12 00:14:33;;;;;;;0.80;0.60;;;6.20;99.90;;;;;;5095152;28;20414;-53
2021/04/12 00:17:03;;;;;;;0.90;0.60;;;6.00;99.90;;;;;;5094738;28;20507;-51
2021/04/12 00:19:37;;;;;;;1.42;0.50;;;5.90;99.90;;;;;;5093878;28;20517;-53
2021/04/12 00:22:11;;;;;;;0.60;0.50;;;5.80;99.90;;;;;;5093465;28;20462;-50
2021/04/12 00:24:44;;;;;;;0.90;0.60;;;5.70;99.90;;;;;;5094167;28;20855;-53
2021/04/12 00:27:14;;;;;;;0.85;0.60;;;5.60;99.90;;;;;;5094071;28;20936;-51
2021/04/12 00:29:45;;;;;;;0.73;0.50;;;5.60;99.90;;;;;;5092818;28;20453;-51
2021/04/12 00:32:16;;;;;;;0.90;0.60;;;5.60;99.90;;;;;;5094563;28;20828;-52
2021/04/12 00:34:52;;;;;;;0.90;0.60;;;5.70;99.90;;;;;;5098055;28;20417;-54
2021/04/12 00:37:24;;;;;;;0.90;0.60;;;5.70;99.90;;;;;;5098220;28;20512;-55
2021/04/12 00:39:55;;;;;;;0.88;0.60;;;5.60;99.90;;;;;;5098537;28;20437;-54
2021/04/12 00:42:57;;;;;;;1.02;0.60;;;5.40;99.90;;;;;;5098294;28;20803;-54
2021/04/12 00:45:35;;;;;;;1.00;0.70;;;5.30;99.90;;;;;;5052803;28;20457;-53
2021/04/12 00:48:42;;;;;;;0.90;0.60;;;5.40;99.90;;;;;;5096535;28;20514;-50
2021/04/12 00:51:28;;;;;;;0.80;0.50;;;5.50;99.90;;;;;;5048221;28;20466;-55
2021/04/12 00:54:12;;;;;;;0.88;0.60;;;5.60;99.90;;;;;;5096454;28;20457;-49
2021/04/12 00:56:43;;;;;;;0.90;0.60;;;5.50;99.90;;;;;;5096380;28;20453;-48
2021/04/12 00:59:17;;;;;;;0.90;0.65;;;5.40;99.90;;;;;;5096567;28;20496;-53
2021/04/12 01:01:48;;;;;;;1.00;0.70;;;5.50;99.90;;;;;;5097293;28;20462;-51
2021/04/12 01:04:32;;;;;;;0.83;0.50;;;5.50;99.90;;;;;;5096887;28;20500;-53
2021/04/12 01:07:33;;;;;;;1.10;0.60;;;5.40;99.90;;;;;;5097141;28;20491;-49
2021/04/12 01:10:30;;;;;;;1.10;0.60;;;5.30;99.90;;;;;;5097342;28;20418;-50
2021/04/12 01:13:34;;;;;;;1.02;0.60;;;5.30;99.90;;;;;;5096857;28;20457;-52
2021/04/12 01:16:24;;;;;;;0.90;0.70;;;5.30;99.90;;;;;;5097056;28;20422;-53
2021/04/12 01:19:13;;;;;;;1.08;0.70;;;5.10;99.90;;;;;;5097240;28;20414;-52
2021/04/12 01:22:30;;;;;;;1.10;0.70;;;5.10;99.90;;;;;;5085493;28;20426;-55
2021/04/12 01:25:47;;;;;;;0.95;0.70;;;5.10;99.90;;;;;;5095021;28;20457;-52
2021/04/12 01:28:53;;;;;;;1.58;0.70;;;5.10;99.90;;;;;;5095796;28;20730;-54
2021/04/12 01:31:40;;;;;;;1.13;0.70;;;5.00;99.90;;;;;;5095982;28;20516;-51
2021/04/12 01:34:37;;;;;;;1.00;0.70;;;5.00;99.90;;;;;;5095916;28;20715;-50
2021/04/12 01:37:28;;;;;;;1.17;0.70;;;5.00;99.90;;;;;;5096079;28;20920;-53
2021/04/12 01:40:19;;;;;;;0.90;0.70;;;5.10;99.90;;;;;;5097149;28;20422;-53
2021/04/12 01:42:55;;;;;;;1.00;0.60;;;5.20;99.90;;;;;;5096801;28;20840;-53
2021/04/12 01:45:40;;;;;;;1.00;0.70;;;5.20;99.90;;;;;;5096235;28;20466;-51
2021/04/12 01:48:27;;;;;;;0.95;0.70;;;5.10;99.90;;;;;;5096223;28;20457;-49
2021/04/12 01:51:15;;;;;;;1.60;0.82;;;5.00;99.90;;;;;;5096316;28;20830;-52
2021/04/12 01:54:03;;;;;;;1.00;0.80;;;5.00;99.90;;;;;;5096124;28;20866;-53
2021/04/12 01:56:41;;;;;;;1.20;0.80;;;5.10;99.90;;;;;;5096227;28;20861;-50
2021/04/12 01:59:27;;;;;;;1.20;0.80;;;5.20;99.90;;;;;;5095749;28;20913;-52
2021/04/12 02:02:11;;;;;;;1.40;0.70;;;5.30;99.90;;;;;;5095872;28;20520;-50
2021/04/12 02:04:48;;;;;;;1.30;0.80;;;5.20;99.90;;;;;;5096943;28;20505;-52
2021/04/12 02:07:38;;;;;;;1.10;0.68;;;5.20;99.90;;;;;;5096244;28;20470;-53
2021/04/12 02:10:43;;;;;;;1.30;0.70;;;5.10;99.90;;;;;;5086192;28;20418;-51
2021/04/12 02:13:21;;;;;;;1.23;0.70;;;5.10;99.90;;;;;;5096527;28;20450;-51
2021/04/12 02:15:57;;;;;;;1.20;0.70;;;5.00;99.90;;;;;;5095749;28;20517;-46
2021/04/12 02:19:01;;;;;;;1.02;0.70;;;4.90;99.90;;;;;;5095580;28;20500;-48
2021/04/12 02:21:51;;;;;;;1.13;0.77;;;5.00;99.90;;;;;;5096465;28;20459;-48
2021/04/12 02:24:28;;;;;;;1.10;0.70;;;4.80;99.90;;;;;;5096105;28;20418;-46
2021/04/12 02:27:04;;;;;;;0.97;0.70;;;4.90;99.90;;;;;;5096533;28;20570;-46
2021/04/12 02:29:45;;;;;;;1.05;0.70;;;5.00;99.90;;;;;;5095864;28;20422;-47
2021/04/12 02:32:47;;;;;;;1.27;0.80;;;5.00;99.90;;;;;;5096230;28;20433;-47
2021/04/12 02:35:33;;;;;;;1.40;0.80;;;5.00;99.90;;;;;;5090759;28;20457;-52
2021/04/12 02:38:11;;;;;;;1.30;0.80;;;5.00;99.90;;;;;;5095960;28;20457;-49
2021/04/12 02:40:52;;;;;;;1.50;0.90;;;5.00;99.90;;;;;;5096162;28;20461;-47
2021/04/12 02:43:30;;;;;;;1.30;0.90;;;5.00;99.90;;;;;;5095686;28;20430;-49
2021/04/12 02:46:14;;;;;;;1.15;0.80;;;4.80;99.90;;;;;;5095748;28;20538;-52
2021/04/12 02:48:53;;;;;;;1.63;1.10;;;4.70;99.90;;;;;;5095643;28;20734;-48
2021/04/12 02:51:47;;;;;;;1.75;0.90;;;4.80;99.90;;;;;;5095848;28;20429;-50
2021/04/12 02:54:46;;;;;;;1.40;0.90;;;4.70;99.90;;;;;;5092725;28;20468;-51
2021/04/12 02:57:29;;;;;;;1.50;0.85;;;4.60;99.90;;;;;;5095433;28;20526;-48
2021/04/12 03:00:22;;;;;;;1.30;0.80;;;4.60;99.90;;;;;;5095301;28;20418;-49
2021/04/12 03:03:18;;;;;;;1.50;0.95;;;4.60;99.90;;;;;;5095464;28;20907;-46
2021/04/12 03:06:00;;;;;;;1.42;1.00;;;4.50;99.90;;;;;;5092218;28;20490;-52
2021/04/12 03:09:02;;;;;;;1.20;0.90;;;4.50;99.90;;;;;;5094451;28;20414;-47
2021/04/12 03:11:57;;;;;;;1.40;0.90;;;4.60;99.90;;;;;;5069082;28;20433;-50
2021/04/12 03:14:54;;;;;;;1.77;0.80;;;4.70;99.90;;;;;;5094250;28;20449;-52
2021/04/12 03:17:52;;;;;;;1.20;0.80;;;4.70;99.90;;;;;;5094111;28;20460;-50
2021/04/12 03:20:58;;;;;;;1.20;0.80;;;4.50;99.90;;;;;;5094359;28;20694;-51
2021/04/12 03:23:40;;;;;;;1.10;0.80;;;4.50;99.90;;;;;;5095138;28;20449;-48
2021/04/12 03:26:46;;;;;;;2.90;0.90;;;4.30;99.90;;;;;;5093423;28;20528;-46
2021/04/12 03:29:25;;;;;;;1.90;0.80;;;4.10;99.90;;;;;;5015612;28;20518;-50
2021/04/12 03:32:23;;;;;;;1.80;0.80;;;4.40;99.90;;;;;;5095453;28;20453;-49
2021/04/12 03:34:59;;;;;;;1.27;0.80;;;4.40;99.90;;;;;;5048821;28;20476;-51
2021/04/12 03:37:50;;;;;;;1.60;0.90;;;4.40;99.90;;;;;;5094505;28;20446;-50
2021/04/12 03:40:25;;;;;;;1.70;0.80;;;4.70;99.90;;;;;;5095096;28;20449;-50
2021/04/12 03:43:23;;;;;;;2.00;0.80;;;4.80;99.90;;;;;;5094967;28;20730;-46
2021/04/12 03:46:19;;;;;;;1.10;0.80;;;4.80;99.90;;;;;;5094652;28;20524;-52
2021/04/12 03:49:22;;;;;;;1.20;0.80;;;4.80;99.90;;;;;;5065816;28;20780;-47
2021/04/12 03:52:12;;;;;;;1.20;0.80;;;4.70;99.90;;;;;;5095394;28;20508;-46
2021/04/12 03:54:48;;;;;;;1.92;0.70;;;4.80;99.90;;;;;;5093661;28;20509;-47
2021/04/12 03:57:42;;;;;;;1.20;0.77;;;4.80;99.90;;;;;;5094582;28;20445;-47
2021/04/12 04:00:24;;;;;;;1.55;0.80;;;4.70;99.90;;;;;;5094509;28;20445;-49
2021/04/12 04:03:15;;;;;;;1.40;0.90;;;4.80;99.90;;;;;;5094296;28;20781;-51
2021/04/12 04:05:51;;;;;;;1.33;0.90;;;4.80;99.90;;;;;;5093825;28;20426;-47
2021/04/12 04:08:31;;;;;;;1.40;0.90;;;4.80;99.90;;;;;;5093581;28;20653;-47
2021/04/12 04:11:16;;;;;;;2.10;1.10;;;4.80;99.90;;;;;;5095592;28;20528;-48
2021/04/12 04:14:00;;;;;;;1.80;1.00;;;4.80;99.90;;;;;;5096440;28;20417;-50
2021/04/12 04:16:38;;;;;;;1.27;0.90;;;4.80;99.90;;;;;;5096324;28;20504;-51
2021/04/12 04:19:13;;;;;;;1.70;1.00;;;4.70;99.90;;;;;;5091597;28;20448;-53
2021/04/12 04:22:11;;;;;;;2.70;1.10;;;4.50;99.90;;;;;;5077141;28;20467;-47
2021/04/12 04:24:55;;;;;;;1.50;1.00;;;4.50;99.90;;;;;;5078848;28;20480;-48
2021/04/12 04:28:10;;;;;;;1.70;1.10;;;4.60;99.90;;;;;;5089558;28;20528;-52
2021/04/12 04:31:00;;;;;;;1.85;1.10;;;4.60;99.90;;;;;;5077521;28;20807;-52
2021/04/12 04:33:39;;;;;;;1.65;1.00;;;4.60;99.90;;;;;;5076982;28;20419;-50
2021/04/12 04:36:29;;;;;;;1.20;0.90;;;4.70;99.90;;;;;;5077188;28;20457;-51
2021/04/12 04:39:26;;;;;;;1.77;1.30;;;4.70;99.90;;;;;;5075576;28;20840;-50
2021/04/12 04:42:37;;;;;;;1.80;1.00;;;4.70;99.90;;;;;;5072550;28;20435;-49
2021/04/12 04:45:16;;;;;;;1.50;0.90;;;4.60;99.90;;;;;;5076198;28;20477;-48
2021/04/12 04:48:00;;;;;;;1.23;0.70;;;4.60;99.90;;;;;;5082400;28;20521;-64
2021/04/12 04:50:40;;;;;;;1.15;0.70;;;4.50;99.90;;;;;;5077607;28;20470;-65
2021/04/12 04:53:30;;;;;;;1.70;0.75;;;4.30;99.90;;;;;;5078069;28;20909;-65
2021/04/12 04:56:09;;;;;;;1.50;0.90;;;4.30;99.90;;;;;;5077766;28;20522;-64
2021/04/12 04:58:52;;;;;;;1.20;0.80;;;4.30;99.90;;;;;;5076580;28;20518;-64
2021/04/12 05:01:38;;;;;;;1.90;0.75;;;4.30;99.90;;;;;;5075221;28;20488;-66
2021/04/12 05:04:29;;;;;;;1.10;0.70;;;4.20;99.90;;;;;;5074888;28;20737;-61
2021/04/12 05:07:32;;;;;;;1.42;0.80;;;4.10;99.90;;;;;;5075850;28;20463;-62
2021/04/12 05:10:23;;;;;;;1.20;0.80;;;4.20;99.90;;;;;;5075855;28;20506;-62
2021/04/12 05:13:05;;;;;;;1.42;0.90;;;4.20;99.90;;;;;;5074722;28;20511;-66
2021/04/12 05:16:05;;;;;;;1.50;0.90;;;4.20;99.90;;;;;;5075489;28;20593;-64
2021/04/12 05:18:54;;;;;;;1.85;1.00;;;4.00;99.90;;;;;;5075348;28;20451;-65
2021/04/12 05:21:46;;;;;;;1.50;1.20;;;3.80;99.90;;;;;;5077188;28;20803;-65
2021/04/12 05:24:42;;;;;;;1.70;1.15;;;3.90;99.90;;;;;;5076919;28;20784;-66
2021/04/12 05:27:45;;;;;;;3.60;1.10;;;4.10;99.90;;;;;;5064901;28;20473;-66
2021/04/12 05:30:37;;;;;;;1.60;1.10;;;4.30;99.90;;;;;;5095412;28;20506;-65
2021/04/12 05:33:14;;;;;;;1.60;1.00;;;4.30;99.90;;;;;;5095624;28;20879;-67
2021/04/12 05:36:28;;;;;;;1.90;1.00;;;4.40;99.90;;;;;;5095550;28;20425;-68
2021/04/12 05:39:25;;;;;;;2.20;1.20;;;4.40;99.90;;;;;;5095746;28;20441;-68
2021/04/12 05:42:21;;;;;;;1.77;1.00;;;4.30;99.90;;;;;;5093496;28;20429;-68
2021/04/12 05:45:10;;;;;;;1.52;0.90;;;4.40;99.90;;;;;;5088603;28;20434;-69
2021/04/12 05:48:11;;;;;;;1.30;1.00;;;4.50;99.90;;;;;;5085781;28;20770;-69
2021/04/12 05:50:55;;;;;;;1.65;1.00;;;4.70;99.90;;;;;;5095766;28;20430;-71
2021/04/12 05:53:44;;;;;;;1.42;0.90;;;4.60;99.90;;;;;;5095266;28;20501;-68
2021/04/12 05:56:26;;;;;;;1.60;1.00;;;4.20;99.90;;;;;;5094607;28;20457;-68
2021/04/12 05:59:26;;;;;;;1.90;1.10;;;4.00;99.90;;;;;;5093895;28;20461;-68
2021/04/12 06:02:16;;;;;;;1.80;1.00;;;3.80;99.90;;;;;;5052118;28;20871;-68
2021/04/12 06:04:51;;;;;;;2.13;1.00;;;3.90;99.90;;;;;;5082697;28;20448;-68
2021/04/12 06:07:51;;;;;;;3.60;1.98;;;4.00;99.90;;;;;;5094060;28;20440;-68
2021/04/12 06:11:07;;;;;;;2.28;1.30;;;4.00;99.90;;;;;;5092062;28;20477;-69
2021/04/12 06:14:07;;;;;;;3.27;1.70;;;3.90;99.90;;;;;;5094112;28;20490;-69
2021/04/12 06:17:05;;;;;;;1.90;1.20;;;4.10;99.90;;;;;;5093831;28;20421;-69
2021/04/12 06:20:04;;;;;;;1.77;1.30;;;4.20;99.90;;;;;;5093973;28;20421;-68
2021/04/12 06:23:06;;;;;;;2.50;1.48;;;4.40;99.90;;;;;;5049561;28;20891;-68
2021/04/12 06:26:17;;;;;;;2.70;1.40;;;4.60;99.90;;;;;;5089699;28;20571;-68
2021/04/12 06:28:54;;;;;;;3.00;1.40;;;4.80;99.90;;;;;;5015423;28;20856;-67
2021/04/12 06:32:02;;;;;;;2.97;1.40;;;4.70;99.90;;;;;;5023282;28;20453;-67
2021/04/12 06:35:08;;;;;;;2.25;1.40;;;4.90;99.90;;;;;;5078374;28;20838;-67
2021/04/12 06:38:00;;;;;;;2.00;1.50;;;5.10;99.90;;;;;;5087650;28;20505;-67
2021/04/12 06:41:05;;;;;;;2.10;1.40;;;5.30;99.90;;;;;;5090367;28;20796;-65
2021/04/12 06:44:06;;;;;;;2.70;1.50;;;5.40;99.90;;;;;;5091085;28;20512;-65
2021/04/12 06:47:18;;;;;;;2.17;1.30;;;5.40;99.90;;;;;;5093909;28;20437;-64
2021/04/12 06:50:30;;;;;;;2.60;1.60;;;5.30;99.90;;;;;;5092603;28;20461;-63
2021/04/12 06:53:50;;;;;;;1.95;1.20;;;5.40;99.90;;;;;;5045852;28;20419;-50
2021/04/12 06:57:00;;;;;;;2.40;1.15;;;5.40;99.90;;;;;;5090920;28;20525;-52
2021/04/12 07:00:06;;;;;;;2.40;1.20;;;5.30;99.90;;;;;;5064046;28;20427;-50
2021/04/12 07:03:27;;;;;;;2.40;1.30;;;5.40;99.90;;;;;;5084808;28;20797;-51
2021/04/12 07:06:24;;;;;;;3.20;1.40;;;5.50;99.90;;;;;;5086390;28;20475;-50
2021/04/12 07:09:23;;;;;;;3.90;1.30;;;5.40;99.90;;;;;;5059206;28;20429;-50
2021/04/12 07:12:23;;;;;;;2.90;1.40;;;5.40;99.90;;;;;;5092332;28;20468;-51
2021/04/12 07:15:26;;;;;;;2.40;1.50;;;5.30;99.90;;;;;;5090530;28;20467;-48
2021/04/12 07:18:26;;;;;;;2.40;1.50;;;5.30;99.90;;;;;;5049990;28;20824;-50
2021/04/12 07:21:21;;;;;;;1.95;1.20;;;5.20;99.90;;;;;;5084117;28;20520;-53
2021/04/12 07:24:46;;;;;;;2.28;1.40;;;5.20;99.90;;;;;;5072512;28;20851;-49
2021/04/12 07:27:57;;;;;;;2.75;1.75;;;5.20;99.90;;;;;;5056515;28;20431;-47
2021/04/12 07:30:51;;;;;;;3.72;1.50;;;5.20;99.90;;;;;;5075103;28;20885;-47
2021/04/12 07:33:49;;;;;;;2.70;1.50;;;5.20;99.90;;;;;;5081462;28;20440;-51
2021/04/12 07:37:03;;;;;;;3.65;1.55;;;5.30;99.90;;;;;;5090511;28;20465;-51
2021/04/12 07:40:03;;;;;;;4.27;1.80;;;5.40;99.90;;;;;;5078621;28;20567;-48
2021/04/12 07:43:08;;;;;;;2.58;1.58;;;5.30;99.90;;;;;;5080984;28;20423;-52
2021/04/12 07:46:14;;;;;;;4.00;2.00;;;5.30;99.90;;;;;;5087785;28;20803;-47
2021/04/12 07:49:25;;;;;;;7.70;4.72;;;5.40;99.90;;;;;;5074495;28;20426;-48
2021/04/12 07:52:33;;;;;;;6.70;4.55;;;5.50;99.90;;;;;;5077176;28;20502;-52
2021/04/12 07:55:36;;;;;;;3.13;1.80;;;5.50;99.90;;;;;;5040196;28;20899;-47
2021/04/12 07:58:51;;;;;;;4.20;2.00;;;5.90;99.90;;;;;;5052318;28;20419;-51
2021/04/12 08:01:52;;;;;;;4.40;2.47;;;5.90;99.90;;;;;;4973534;28;20482;-50
2021/04/12 08:05:06;;;;;;;3.13;2.00;;;6.10;99.90;;;;;;5061991;28;20742;-47
2021/04/12 08:08:06;;;;;;;4.90;2.53;;;6.20;99.90;;;;;;5003307;28;20956;-47
2021/04/12 08:11:12;;;;;;;3.80;2.22;;;6.10;99.90;;;;;;5082656;28;20429;-48
2021/04/12 08:14:22;;;;;;;5.40;2.80;;;6.30;99.90;;;;;;5086540;28;21104;-51
2021/04/12 08:17:36;;;;;;;3.90;2.20;;;6.60;99.90;;;;;;5083157;28;20413;-46
2021/04/12 08:20:52;;;;;;;3.70;2.33;;;6.70;99.90;;;;;;5057507;28;20427;-47
2021/04/12 08:24:07;;;;;;;4.23;2.00;;;6.60;99.90;;;;;;5071663;28;20430;-51
2021/04/12 08:27:16;;;;;;;3.22;2.08;;;7.00;99.90;;;;;;5089988;28;20837;-49
2021/04/12 08:30:26;;;;;;;3.95;1.98;;;7.40;99.90;;;;;;5014967;28;20502;-48
2021/04/12 08:33:40;;;;;;;4.35;2.10;;;7.60;99.90;;;;;;5090174;28;20421;-48
2021/04/12 08:36:44;;;;;;;3.72;2.70;;;7.40;99.90;;;;;;5089245;28;20445;-51
2021/04/12 08:40:01;;;;;;;5.00;2.50;;;7.10;99.90;;;;;;5074701;28;20419;-52
2021/04/12 08:43:07;;;;;;;4.15;2.47;;;7.30;99.90;;;;;;5076668;28;20415;-49
2021/04/12 08:46:30;;;;;;;3.20;1.77;;;7.20;99.90;;;;;;5088943;28;20434;-50
2021/04/12 08:49:43;;;;;;;2.87;1.80;;;7.20;99.90;;;;;;5085333;28;20786;-50
2021/04/12 08:52:42;;;;;;;3.95;1.98;;;7.30;99.90;;;;;;5041666;28;20433;-49
2021/04/12 08:55:38;;;;;;;3.28;1.90;;;7.20;99.90;;;;;;5071680;28;20838;-51
2021/04/12 08:58:42;;;;;;;3.10;1.90;;;7.30;99.90;;;;;;5093166;28;20414;-46
2021/04/12 09:01:33;;;;;;;3.40;1.83;;;7.60;99.90;;;;;;5087772;28;20426;-49
2021/04/12 09:04:36;;;;;;;1.90;1.30;;;7.70;99.90;;;;;;5081473;28;20443;-52
2021/04/12 09:07:36;;;;;;;3.20;1.73;;;7.70;99.90;;;;;;5082257;28;20568;-49
2021/04/12 09:10:31;;;;;;;2.60;1.50;;;7.90;99.90;;;;;;5088203;28;20448;-51
2021/04/12 09:13:33;;;;;;;3.90;1.70;;;7.40;99.90;;;;;;5076222;28;20769;-48
2021/04/12 09:16:29;;;;;;;2.75;1.50;;;7.40;99.90;;;;;;5088420;28;20431;-51
2021/04/12 09:19:31;;;;;;;2.13;1.20;;;7.60;99.90;;;;;;5062410;28;20427;-53
2021/04/12 09:22:48;;;;;;;2.10;1.20;;;7.80;99.90;;;;;;5092640;28;20429;-49
2021/04/12 09:25:49;;;;;;;1.90;1.40;;;7.90;99.90;;;;;;5091966;28;20506;-50
2021/04/12 09:28:54;;;;;;;2.53;1.40;;;7.60;99.90;;;;;;5094992;28;20472;-49
2021/04/12 09:31:46;;;;;;;2.40;1.20;;;7.70;99.90;;;;;;5068043;28;20578;-49
2021/04/12 09:34:53;;;;;;;3.63;1.37;;;7.40;99.90;;;;;;5093239;28;20480;-51
2021/04/12 09:38:12;;;;;;;1.60;1.10;;;7.40;99.90;;;;;;5093636;28;20852;-51
2021/04/12 09:41:18;;;;;;;1.90;1.10;;;7.80;99.90;;;;;;5073414;28;20432;-52
2021/04/12 09:44:24;;;;;;;1.95;1.15;;;8.10;99.90;;;;;;5082443;28;20740;-49
2021/04/12 09:47:39;;;;;;;1.60;1.00;;;8.10;99.90;;;;;;5090128;28;20736;-52
2021/04/12 09:50:58;;;;;;;2.20;1.10;;;8.30;99.90;;;;;;5092739;28;20437;-53
2021/04/12 09:53:59;;;;;;;2.40;1.10;;;8.10;99.90;;;;;;5093324;28;20497;-55
2021/04/12 09:56:51;;;;;;;1.60;0.90;;;7.90;99.90;;;;;;5090410;28;20501;-54
2021/04/12 09:59:44;;;;;;;1.30;0.90;;;8.20;99.90;;;;;;5095163;28;20513;-52
2021/04/12 10:02:31;;;;;;;1.38;0.90;;;8.30;99.90;;;;;;5082535;28;20432;-51
2021/04/12 10:05:17;;;;;;;2.58;0.80;;;8.10;99.90;;;;;;5082489;28;20448;-51
2021/04/12 10:08:20;;;;;;;1.77;0.70;;;8.30;99.90;;;;;;5094670;28;20430;-52
2021/04/12 10:11:00;;;;;;;1.70;0.80;;;8.20;99.90;;;;;;5094443;28;20429;-51
2021/04/12 10:13:33;;;;;;;1.30;0.80;;;8.10;99.90;;;;;;5094363;28;20482;-55
2021/04/12 10:16:20;;;;;;;1.60;0.85;;;8.50;99.90;;;;;;5093023;28;20455;-54
2021/04/12 10:19:09;;;;;;;1.30;0.70;;;8.80;99.90;;;;;;5093451;28;20461;-56
2021/04/12 10:21:44;;;;;;;1.30;0.70;;;8.90;99.90;;;;;;5092768;28;20430;-56
2021/04/12 10:24:19;;;;;;;1.50;0.80;;;9.00;99.90;;;;;;5092519;28;20428;-54
2021/04/12 10:26:49;;;;;;;2.22;0.70;;;9.00;99.90;;;;;;5093765;28;20437;-55
2021/04/12 10:29:20;;;;;;;1.40;0.80;;;8.70;99.90;;;;;;5093946;28;20825;-55
2021/04/12 10:31:56;;;;;;;1.10;0.70;;;8.40;99.90;;;;;;5092868;28;20418;-55
2021/04/12 10:34:27;;;;;;;1.50;0.68;;;8.30;99.90;;;;;;5073409;28;20461;-50
2021/04/12 10:37:09;;;;;;;1.27;0.70;;;8.40;99.90;;;;;;5090236;28;20462;-52
2021/04/12 10:39:44;;;;;;;1.40;0.70;;;8.30;99.90;;;;;;5092837;28;20422;-53
2021/04/12 10:42:34;;;;;;;1.20;0.60;;;8.50;99.90;;;;;;5088250;28;20430;-54
2021/04/12 10:45:07;;;;;;;1.02;0.60;;;8.40;99.90;;;;;;5083168;28;20426;-52
2021/04/12 10:47:51;;;;;;;0.90;0.60;;;8.90;99.90;;;;;;5087582;28;20438;-53
2021/04/12 10:50:27;;;;;;;0.90;0.50;;;9.40;99.90;;;;;;5073949;28;20481;-52
2021/04/12 10:53:05;;;;;;;1.10;0.50;;;9.60;99.90;;;;;;5080486;28;20460;-53
2021/04/12 10:55:36;;;;;;;0.70;0.50;;;9.50;99.90;;;;;;5094439;28;20494;-51
2021/04/12 10:58:22;;;;;;;1.95;0.50;;;9.40;99.90;;;;;;5093850;28;20460;-54
2021/04/12 11:01:00;;;;;;;1.00;0.50;;;9.40;99.90;;;;;;5090055;28;20520;-53
2021/04/12 11:03:50;;;;;;;1.60;0.50;;;9.40;99.90;;;;;;5093527;28;20737;-54
2021/04/12 11:06:46;;;;;;;3.20;0.60;;;9.50;99.90;;;;;;5088145;28;20455;-50
2021/04/12 11:09:33;;;;;;;0.90;0.60;;;8.80;99.90;;;;;;5080927;28;20474;-50
2021/04/12 11:12:09;;;;;;;3.65;0.60;;;8.90;99.90;;;;;;5077418;28;20522;-52
2021/04/12 11:14:44;;;;;;;1.20;0.60;;;9.00;99.90;;;;;;5080666;28;20827;-49
2021/04/12 11:17:18;;;;;;;1.00;0.70;;;8.80;99.90;;;;;;5078238;28;20742;-52
2021/04/12 11:19:53;;;;;;;1.02;0.50;;;8.90;99.90;;;;;;5080103;28;20430;-52
2021/04/12 11:22:42;;;;;;;0.80;0.50;;;9.30;99.90;;;;;;5089360;28;20425;-52
2021/04/12 11:25:16;;;;;;;0.80;0.50;;;9.50;99.90;;;;;;5088585;28;20909;-53
2021/04/12 11:28:08;;;;;;;1.50;0.50;;;9.70;99.90;;;;;;5091191;28;20923;-52
2021/04/12 11:30:45;;;;;;;1.05;0.50;;;9.30;99.90;;;;;;5082318;28;20602;-49
2021/04/12 11:33:33;;;;;;;1.00;0.80;;;8.80;99.90;;;;;;5088747;28;20509;-54
2021/04/12 11:36:09;;;;;;;2.00;0.60;;;8.40;99.90;;;;;;5086039;28;20420;-49
2021/04/12 11:38:43;;;;;;;0.80;0.60;;;8.20;99.90;;;;;;5077705;28;20571;-51
2021/04/12 11:41:14;;;;;;;1.10;0.60;;;8.00;99.90;;;;;;5089624;28;20465;-52
2021/04/12 11:43:45;;;;;;;0.98;0.60;;;8.40;99.90;;;;;;5082727;28;20901;-53
2021/04/12 11:46:21;;;;;;;0.90;0.55;;;8.70;99.90;;;;;;5083745;28;20518;-49
2021/04/12 11:48:52;;;;;;;1.08;0.52;;;9.50;99.90;;;;;;5084222;28;20431;-51
2021/04/12 11:51:33;;;;;;;1.20;0.60;;;10.20;99.90;;;;;;5092158;28;20441;-52
2021/04/12 11:54:06;;;;;;;0.70;0.40;;;10.50;99.90;;;;;;5086805;28;20464;-52
2021/04/12 11:56:44;;;;;;;0.80;0.50;;;10.90;99.90;;;;;;5088516;28;20952;-50
2021/04/12 11:59:19;;;;;;;0.70;0.50;;;10.80;99.90;;;;;;5092340;28;20421;-51
2021/04/12 12:01:51;;;;;;;1.70;0.40;;;10.90;99.90;;;;;;5092936;28;20425;-54
2021/04/12 12:04:25;;;;;;;0.60;0.40;;;11.30;99.90;;;;;;5092081;28;20422;-54
2021/04/12 12:07:09;;;;;;;0.70;0.50;;;11.80;99.90;;;;;;5092354;28;20872;-52
2021/04/12 12:09:44;;;;;;;0.70;0.40;;;11.20;99.90;;;;;;5091454;28;20503;-52
2021/04/12 12:12:28;;;;;;;0.60;0.40;;;10.30;99.90;;;;;;5080541;28;20442;-55
2021/04/12 12:15:01;;;;;;;0.70;0.40;;;10.30;99.90;;;;;;5079379;28;20522;-52
2021/04/12 12:17:34;;;;;;;0.70;0.40;;;9.80;99.90;;;;;;5092859;28;20414;-50
2021/04/12 12:20:13;;;;;;;0.90;0.40;;;9.50;99.90;;;;;;5093154;28;20517;-49
2021/04/12 12:22:56;;;;;;;0.50;0.40;;;9.60;99.90;;;;;;5072558;28;20415;-53
2021/04/12 12:25:36;;;;;;;1.00;0.45;;;9.80;99.90;;;;;;5093554;28;20429;-54
2021/04/12 12:28:16;;;;;;;1.00;0.50;;;9.80;99.90;;;;;;5093630;28;20425;-53
2021/04/12 12:30:54;;;;;;;1.10;0.50;;;9.50;99.90;;;;;;5093549;28;20441;-54
2021/04/12 12:33:30;;;;;;;1.42;0.50;;;9.60;99.90;;;;;;5089327;28;20509;-53
2021/04/12 12:36:07;;;;;;;0.70;0.50;;;9.50;99.90;;;;;;5092166;28;20725;-55
2021/04/12 12:38:48;;;;;;;0.60;0.50;;;9.60;99.90;;;;;;5096301;28;20427;-56
2021/04/12 12:41:18;;;;;;;2.30;1.50;;;10.10;99.90;;;;;;5094686;28;20512;-54
2021/04/12 12:43:47;;;;;;;5.50;2.72;;;10.00;99.90;;;;;;5094615;28;20464;-54
2021/04/12 12:46:20;;;;;;;0.80;0.50;;;9.90;99.90;;;;;;5093410;28;20445;-55
2021/04/12 12:48:51;;;;;;;1.10;0.50;;;10.10;99.90;;;;;;5075289;28;20526;-55
2021/04/12 12:51:24;;;;;;;0.80;0.38;;;10.00;99.90;;;;;;5093528;28;20524;-51
2021/04/12 12:53:58;;;;;;;0.68;0.30;;;10.00;99.90;;;;;;5096353;28;20491;-54
2021/04/12 12:56:29;;;;;;;0.57;0.30;;;9.80;97.50;;;;;;5094587;28;20919;-51
2021/04/12 12:58:58;;;;;;;1.02;0.30;;;9.60;96.60;;;;;;5091418;28;20508;-51
2021/04/12 13:01:28;;;;;;;0.65;0.35;;;9.50;99.00;;;;;;5091287;28;20500;-53
2021/04/12 13:04:06;;;;;;;0.52;0.38;;;9.80;99.00;;;;;;5088447;28;20453;-52
2021/04/12 13:06:33;;;;;;;0.60;0.40;;;10.00;96.20;;;;;;5093520;28;20418;-52
2021/04/12 13:09:04;;;;;;;0.70;0.40;;;10.50;97.80;;;;;;5092727;28;21129;-55
2021/04/12 13:11:41;;;;;;;0.50;0.40;;;11.00;97.70;;;;;;5093046;28;20430;-54
2021/04/12 13:14:11;;;;;;;0.60;0.40;;;11.60;96.80;;;;;;5092155;28;20422;-52
2021/04/12 13:16:38;;;;;;;1.00;0.30;;;11.50;91.90;;;;;;5093133;28;20904;-54
2021/04/12 13:19:06;;;;;;;0.60;0.40;;;10.80;94.70;;;;;;5092691;28;20421;-54
2021/04/12 13:21:35;;;;;;;0.75;0.38;;;10.70;95.40;;;;;;5092996;28;20429;-54
2021/04/12 13:24:15;;;;;;;0.90;0.30;;;11.10;96.40;;;;;;5093441;28;20526;-51
2021/04/12 13:26:51;;;;;;;0.70;0.40;;;11.30;93.30;;;;;;5094787;28;20429;-51
2021/04/12 13:29:21;;;;;;;1.10;0.40;;;11.50;94.10;;;;;;5095591;28;20450;-51
2021/04/12 13:31:51;;;;;;;0.60;0.30;;;11.70;91.30;;;;;;5093696;28;20852;-54
2021/04/12 13:34:21;;;;;;;1.10;0.30;;;11.40;89.60;;;;;;5084344;28;20442;-56
2021/04/12 13:36:52;;;;;;;0.60;0.30;;;11.30;90.90;;;;;;5095529;28;20849;-56
2021/04/12 13:39:30;;;;;;;1.13;0.30;;;11.20;93.30;;;;;;5084326;28;20447;-55
2021/04/12 13:41:59;;;;;;;0.60;0.30;;;11.30;94.30;;;;;;5082728;28;20988;-54
2021/04/12 13:44:27;;;;;;;1.20;0.30;;;11.20;92.90;;;;;;5075203;28;20789;-53
2021/04/12 13:47:01;;;;;;;0.60;0.40;;;10.90;90.90;;;;;;5088707;28;20534;-56
2021/04/12 13:49:38;;;;;;;0.50;0.30;;;10.00;93.10;;;;;;5093543;28;20516;-54
2021/04/12 13:52:09;;;;;;;0.50;0.40;;;10.20;92.60;;;;;;5089191;28;20936;-56
2021/04/12 13:54:43;;;;;;;0.73;0.40;;;10.30;93.80;;;;;;5073451;28;20427;-56
2021/04/12 13:57:25;;;;;;;1.10;0.40;;;10.30;92.40;;;;;;5074929;28;20734;-55
2021/04/12 13:59:55;;;;;;;1.20;0.40;;;10.30;94.70;;;;;;5094438;28;20422;-56
2021/04/12 14:02:29;;;;;;;1.20;0.40;;;10.50;94.60;;;;;;5086839;28;20510;-57
2021/04/12 14:04:58;;;;;;;0.70;0.40;;;9.90;95.80;;;;;;5093071;28;20945;-57
2021/04/12 14:07:41;;;;;;;0.50;0.40;;;9.80;96.90;;;;;;5094145;28;20465;-57
2021/04/12 14:10:14;;;;;;;1.20;0.40;;;9.80;95.20;;;;;;5091045;28;20429;-56
2021/04/12 14:12:53;;;;;;;0.57;0.40;;;9.70;97.40;;;;;;5091742;28;20915;-57
2021/04/12 14:15:30;;;;;;;0.80;0.40;;;9.90;98.30;;;;;;5093362;28;20790;-54
2021/04/12 14:18:02;;;;;;;0.70;0.40;;;10.10;97.80;;;;;;5092056;28;20755;-56
2021/04/12 14:20:34;;;;;;;0.70;0.50;;;10.30;98.10;;;;;;5091521;28;20421;-57
2021/04/12 14:23:05;;;;;;;0.80;0.50;;;10.80;96.60;;;;;;5092148;28;20513;-56
2021/04/12 14:25:37;;;;;;;0.73;0.40;;;10.90;96.50;;;;;;5091342;28;20463;-57
2021/04/12 14:28:09;;;;;;;0.90;0.50;;;10.60;96.40;;;;;;5089302;28;20535;-52
2021/04/12 14:30:43;;;;;;;1.00;0.40;;;10.10;97.00;;;;;;5092553;28;20436;-54
2021/04/12 14:33:13;;;;;;;1.20;0.50;;;10.00;97.90;;;;;;5091366;28;20442;-55
2021/04/12 14:35:43;;;;;;;2.20;0.40;;;10.10;98.20;;;;;;5083738;28;20541;-52
2021/04/12 14:38:15;;;;;;;0.70;0.40;;;10.10;98.10;;;;;;5086065;28;20883;-53
2021/04/12 14:40:44;;;;;;;0.55;0.40;;;10.20;97.90;;;;;;5084927;28;20742;-54
2021/04/12 14:43:21;;;;;;;1.20;0.40;;;10.30;98.10;;;;;;5070631;28;20719;-56